Time;durP1;ratioP1;P1;durP2;ratioP2;P2;SDS_P1;SDS_P2;PMS_P1;PMS_P2;Temp;Humidity;BMP_temperature;BMP_pressure;BME280_temperature;BME280_humidity;BME280_pressure;Samples;Min_cycle;Max_cycle;Signal;HPM_P1;HPM_P2
2023/03/14 00:02:19;;;;;;;;;;;17.80;53.20;;;;;;5011783;28;19924;-73
2023/03/14 00:04:45;;;;;;;;;;;17.80;53.30;;;;;;5009931;28;19921;-73
2023/03/14 00:07:11;;;;;;;;;;;17.70;53.40;;;;;;5025648;28;20370;-73
2023/03/14 00:09:36;;;;;;;;;;;17.70;53.40;;;;;;5015446;28;19922;-73
2023/03/14 00:12:02;;;;;;;;;;;17.70;53.50;;;;;;5001705;28;19986;-73
2023/03/14 00:14:28;;;;;;;;;;;17.70;53.60;;;;;;4993852;28;19914;-73
2023/03/14 00:16:54;;;;;;;;;;;17.70;53.70;;;;;;5002338;28;19984;-74
2023/03/14 00:19:19;;;;;;;;;;;17.70;53.60;;;;;;5011308;28;19921;-73
2023/03/14 00:21:45;;;;;;;;;;;17.70;53.60;;;;;;5024742;28;19917;-73
2023/03/14 00:24:10;;;;;;;;;;;17.60;53.70;;;;;;5021189;28;19993;-73
2023/03/14 00:26:35;;;;;;;;;;;17.60;53.70;;;;;;5011130;28;19914;-73
2023/03/14 00:29:01;;;;;;;;;;;17.60;53.60;;;;;;5012499;28;19952;-73
2023/03/14 00:31:26;;;;;;;;;;;17.60;53.60;;;;;;4999662;28;19966;-73
2023/03/14 00:33:52;;;;;;;;;;;17.60;53.80;;;;;;5021117;28;20309;-73
2023/03/14 00:36:18;;;;;;;;;;;17.60;53.70;;;;;;5012028;28;19966;-73
2023/03/14 00:38:44;;;;;;;;;;;17.60;53.80;;;;;;5012504;28;19913;-73
2023/03/14 00:41:10;;;;;;;;;;;17.60;53.70;;;;;;4999416;28;19922;-73
2023/03/14 00:43:35;;;;;;;;;;;17.60;53.80;;;;;;5011791;28;19909;-73
2023/03/14 00:46:01;;;;;;;;;;;17.50;53.80;;;;;;5012479;28;19970;-73
2023/03/14 00:48:26;;;;;;;;;;;17.50;53.80;;;;;;5030417;28;19918;-73
2023/03/14 00:50:52;;;;;;;;;;;17.50;53.90;;;;;;5020305;28;19917;-73
2023/03/14 00:53:17;;;;;;;;;;;17.50;53.90;;;;;;5030694;28;20004;-73
2023/03/14 00:55:43;;;;;;;;;;;17.50;53.80;;;;;;4994880;28;19914;-73
2023/03/14 00:58:09;;;;;;;;;;;17.50;53.90;;;;;;5010407;28;20008;-73
2023/03/14 01:00:35;;;;;;;;;;;17.40;53.80;;;;;;5010912;28;19923;-73
2023/03/14 01:03:00;;;;;;;;;;;17.40;54.00;;;;;;5026994;27;19917;-73
2023/03/14 01:05:26;;;;;;;;;;;17.40;54.00;;;;;;5013934;28;19913;-73
2023/03/14 01:07:52;;;;;;;;;;;17.40;54.00;;;;;;5027571;28;19917;-73
2023/03/14 01:10:17;;;;;;;;;;;17.40;54.00;;;;;;5011686;28;19921;-73
2023/03/14 01:12:42;;;;;;;;;;;17.40;54.00;;;;;;5009262;28;19913;-73
2023/03/14 01:15:08;;;;;;;;;;;17.40;54.10;;;;;;5010341;28;19970;-73
2023/03/14 01:17:34;;;;;;;;;;;17.30;53.90;;;;;;5057263;28;20008;-73
2023/03/14 01:19:59;;;;;;;;;;;17.40;54.00;;;;;;5010221;28;19945;-73
2023/03/14 01:22:25;;;;;;;;;;;17.40;54.10;;;;;;5021801;28;20016;-73
2023/03/14 01:24:50;;;;;;;;;;;17.30;54.10;;;;;;5028166;28;19920;-73
2023/03/14 01:27:16;;;;;;;;;;;17.30;54.10;;;;;;5020212;28;19920;-73
2023/03/14 01:29:41;;;;;;;;;;;17.40;54.20;;;;;;5012596;28;20383;-73
2023/03/14 01:32:06;;;;;;;;;;;17.30;54.20;;;;;;5013768;27;19917;-73
2023/03/14 01:34:32;;;;;;;;;;;17.30;54.10;;;;;;5010901;28;19917;-73
2023/03/14 01:36:57;;;;;;;;;;;17.30;54.10;;;;;;4999118;28;19920;-73
2023/03/14 01:39:23;;;;;;;;;;;17.20;54.10;;;;;;5024516;28;19913;-73
2023/03/14 01:41:48;;;;;;;;;;;17.20;54.20;;;;;;5010861;28;19913;-73
2023/03/14 01:44:14;;;;;;;;;;;17.20;54.20;;;;;;4999513;28;19913;-73
2023/03/14 01:46:43;;;;;;;;;;;17.20;54.20;;;;;;5029513;28;20401;-72
2023/03/14 01:49:10;;;;;;;;;;;17.20;54.20;;;;;;5013832;28;19999;-72
2023/03/14 01:51:38;;;;;;;;;;;17.20;54.20;;;;;;5029206;28;19929;-73
2023/03/14 01:54:07;;;;;;;;;;;17.20;54.20;;;;;;5010785;28;19974;-73
2023/03/14 01:56:32;;;;;;;;;;;17.20;54.80;;;;;;4995062;28;19910;-73
2023/03/14 01:58:58;;;;;;;;;;;17.10;54.20;;;;;;5019861;28;19910;-73
2023/03/14 02:01:24;;;;;;;;;;;17.20;54.40;;;;;;5011301;28;19909;-73
2023/03/14 02:03:56;;;;;;;;;;;17.10;54.30;;;;;;5029617;28;19910;-73
2023/03/14 02:06:23;;;;;;;;;;;17.20;54.40;;;;;;5028387;28;19958;-73
2023/03/14 02:08:49;;;;;;;;;;;17.20;54.40;;;;;;5026763;28;19917;-73
2023/03/14 02:11:15;;;;;;;;;;;17.20;54.40;;;;;;5010479;28;20008;-73
2023/03/14 02:13:40;;;;;;;;;;;17.20;54.40;;;;;;5010179;28;20040;-73
2023/03/14 02:16:06;;;;;;;;;;;17.20;54.40;;;;;;5008269;28;19999;-74
2023/03/14 02:18:31;;;;;;;;;;;17.20;54.30;;;;;;5010154;28;19917;-74
2023/03/14 02:21:00;;;;;;;;;;;17.20;54.20;;;;;;5026393;28;20446;-73
2023/03/14 02:23:29;;;;;;;;;;;17.30;54.10;;;;;;5013324;28;19917;-73
2023/03/14 02:26:01;;;;;;;;;;;17.30;53.90;;;;;;5095347;28;19917;-73
2023/03/14 02:28:26;;;;;;;;;;;17.40;53.80;;;;;;5010022;28;19915;-73
2023/03/14 02:30:52;;;;;;;;;;;17.40;53.50;;;;;;5033619;28;20349;-73
2023/03/14 02:33:18;;;;;;;;;;;17.60;53.30;;;;;;5016833;28;19910;-73
2023/03/14 02:35:44;;;;;;;;;;;17.70;53.10;;;;;;5011253;28;19917;-73
2023/03/14 02:38:13;;;;;;;;;;;17.80;53.70;;;;;;5011882;28;20384;-73
2023/03/14 02:40:38;;;;;;;;;;;17.80;52.80;;;;;;5009013;28;19913;-73
2023/03/14 02:43:04;;;;;;;;;;;17.90;52.70;;;;;;5046929;28;20465;-73
2023/03/14 02:45:34;;;;;;;;;;;17.90;52.60;;;;;;5011689;28;19917;-73
2023/03/14 02:48:00;;;;;;;;;;;18.00;52.60;;;;;;5004840;28;19962;-73
2023/03/14 02:50:26;;;;;;;;;;;17.90;52.50;;;;;;5017478;28;19925;-73
2023/03/14 02:52:51;;;;;;;;;;;17.90;52.50;;;;;;5009495;28;20016;-73
2023/03/14 02:55:23;;;;;;;;;;;17.90;52.60;;;;;;5009147;28;19996;-73
2023/03/14 02:57:48;;;;;;;;;;;17.90;52.60;;;;;;5002374;28;19909;-72
2023/03/14 03:00:14;;;;;;;;;;;17.90;52.60;;;;;;5011848;28;20263;-73
2023/03/14 03:02:40;;;;;;;;;;;17.90;52.60;;;;;;5022013;27;19913;-73
2023/03/14 03:05:05;;;;;;;;;;;17.90;52.70;;;;;;5010653;28;19952;-73
2023/03/14 03:07:31;;;;;;;;;;;17.90;52.80;;;;;;5019029;28;20004;-73
2023/03/14 03:09:56;;;;;;;;;;;17.80;52.70;;;;;;4993655;28;20306;-73
2023/03/14 03:12:22;;;;;;;;;;;17.80;52.70;;;;;;5009484;28;19921;-72
2023/03/14 03:14:47;;;;;;;;;;;17.80;52.90;;;;;;5009129;28;19918;-73
2023/03/14 03:17:12;;;;;;;;;;;17.70;52.90;;;;;;5000324;28;19929;-72
2023/03/14 03:19:38;;;;;;;;;;;17.70;53.00;;;;;;5008622;28;19939;-74
2023/03/14 03:22:03;;;;;;;;;;;17.70;53.00;;;;;;4992798;28;19913;-73
2023/03/14 03:24:29;;;;;;;;;;;17.70;53.10;;;;;;5010805;28;19975;-73
2023/03/14 03:26:54;;;;;;;;;;;17.70;53.10;;;;;;4992604;28;19913;-73
2023/03/14 03:29:20;;;;;;;;;;;17.70;53.10;;;;;;5028082;28;19917;-73
2023/03/14 03:31:45;;;;;;;;;;;17.70;53.10;;;;;;5010160;28;19924;-73
2023/03/14 03:34:11;;;;;;;;;;;17.70;53.10;;;;;;5017535;28;19946;-73
2023/03/14 03:36:37;;;;;;;;;;;17.70;53.00;;;;;;5026922;28;19920;-73
2023/03/14 03:39:03;;;;;;;;;;;17.80;53.00;;;;;;5027961;28;20251;-73
2023/03/14 03:41:28;;;;;;;;;;;17.80;53.00;;;;;;5013001;28;19966;-73
2023/03/14 03:43:54;;;;;;;;;;;17.80;53.00;;;;;;5008970;28;20000;-73
2023/03/14 03:46:19;;;;;;;;;;;17.70;52.90;;;;;;5008749;28;19913;-73
2023/03/14 03:48:45;;;;;;;;;;;17.80;53.00;;;;;;5008092;28;19920;-73
2023/03/14 03:51:12;;;;;;;;;;;17.80;52.90;;;;;;4992309;28;19959;-73
2023/03/14 03:53:38;;;;;;;;;;;17.70;53.00;;;;;;5001819;28;19970;-73
2023/03/14 03:56:03;;;;;;;;;;;17.70;53.00;;;;;;5008943;28;20382;-73
2023/03/14 03:58:29;;;;;;;;;;;17.70;53.00;;;;;;5008084;28;19939;-73
2023/03/14 04:00:54;;;;;;;;;;;17.70;53.00;;;;;;5026008;28;20254;-73
2023/03/14 04:03:19;;;;;;;;;;;17.70;53.10;;;;;;5020912;28;19917;-73
2023/03/14 04:05:45;;;;;;;;;;;17.70;53.10;;;;;;5009565;28;19917;-73
2023/03/14 04:08:10;;;;;;;;;;;17.70;53.10;;;;;;5020279;28;19964;-73
2023/03/14 04:10:36;;;;;;;;;;;17.60;53.00;;;;;;5016706;28;19921;-73
2023/03/14 04:13:01;;;;;;;;;;;17.60;53.00;;;;;;5008652;28;19914;-73
2023/03/14 04:15:27;;;;;;;;;;;17.60;53.00;;;;;;5008992;28;20353;-73
2023/03/14 04:17:56;;;;;;;;;;;17.60;53.00;;;;;;5008658;28;19914;-73
2023/03/14 04:20:21;;;;;;;;;;;17.60;53.00;;;;;;5016330;28;19920;-73
2023/03/14 04:22:47;;;;;;;;;;;17.60;53.00;;;;;;5020305;28;20298;-73
2023/03/14 04:25:12;;;;;;;;;;;17.60;53.00;;;;;;4995070;28;20016;-73
2023/03/14 04:27:37;;;;;;;;;;;17.60;53.00;;;;;;5008583;28;19913;-72
2023/03/14 04:30:03;;;;;;;;;;;17.70;53.10;;;;;;4996893;28;20004;-72
2023/03/14 04:32:29;;;;;;;;;;;17.70;53.10;;;;;;5021073;28;19924;-74
2023/03/14 04:34:54;;;;;;;;;;;17.70;53.10;;;;;;5008891;28;19917;-72
2023/03/14 04:37:19;;;;;;;;;;;17.70;53.00;;;;;;5007402;28;19917;-73
2023/03/14 04:39:45;;;;;;;;;;;17.70;53.00;;;;;;4993408;28;20627;-72
2023/03/14 04:42:10;;;;;;;;;;;17.70;53.00;;;;;;5025565;28;20234;-73
2023/03/14 04:44:36;;;;;;;;;;;17.70;53.70;;;;;;5008115;28;19910;-74
2023/03/14 04:47:01;;;;;;;;;;;17.70;53.00;;;;;;5007799;28;19917;-73
2023/03/14 04:49:27;;;;;;;;;;;17.70;53.10;;;;;;5010075;28;19952;-73
2023/03/14 04:51:52;;;;;;;;;;;17.60;53.00;;;;;;5026568;28;19935;-73
2023/03/14 04:54:18;;;;;;;;;;;17.70;53.10;;;;;;5007591;28;19913;-73
2023/03/14 04:56:43;;;;;;;;;;;17.70;53.10;;;;;;5008437;28;19914;-73
2023/03/14 04:59:08;;;;;;;;;;;17.70;53.10;;;;;;5008713;28;19952;-73
2023/03/14 05:01:34;;;;;;;;;;;17.70;53.00;;;;;;5016636;28;20405;-73
2023/03/14 05:03:59;;;;;;;;;;;17.70;53.00;;;;;;4998626;28;20336;-73
2023/03/14 05:06:25;;;;;;;;;;;17.70;53.00;;;;;;5015620;28;19914;-73
2023/03/14 05:08:50;;;;;;;;;;;17.70;53.10;;;;;;5003913;28;19970;-73
2023/03/14 05:11:16;;;;;;;;;;;17.70;53.10;;;;;;5010593;28;20410;-74
2023/03/14 05:13:41;;;;;;;;;;;17.60;53.10;;;;;;4994720;28;19920;-74
2023/03/14 05:16:07;;;;;;;;;;;17.70;53.10;;;;;;5010302;28;20378;-75
2023/03/14 05:18:33;;;;;;;;;;;17.60;53.00;;;;;;5002879;28;19972;-73
2023/03/14 05:20:58;;;;;;;;;;;17.70;53.00;;;;;;5010912;28;19961;-74
2023/03/14 05:23:24;;;;;;;;;;;17.70;53.00;;;;;;5026819;28;19917;-74
2023/03/14 05:25:49;;;;;;;;;;;17.70;53.00;;;;;;5022051;28;20058;-74
2023/03/14 05:28:15;;;;;;;;;;;17.70;52.90;;;;;;5010952;28;20397;-73
2023/03/14 05:30:40;;;;;;;;;;;17.70;52.80;;;;;;4999551;28;19918;-75
2023/03/14 05:33:06;;;;;;;;;;;17.70;52.80;;;;;;5019506;28;19920;-73
2023/03/14 05:35:31;;;;;;;;;;;17.70;52.80;;;;;;5000383;28;19913;-73
2023/03/14 05:37:56;;;;;;;;;;;17.80;52.70;;;;;;5031365;28;20389;-73
2023/03/14 05:40:22;;;;;;;;;;;17.80;52.70;;;;;;5016056;28;20351;-73
2023/03/14 05:42:47;;;;;;;;;;;17.80;52.70;;;;;;5014110;28;19939;-73
2023/03/14 05:45:13;;;;;;;;;;;17.80;52.80;;;;;;5015227;28;20378;-73
2023/03/14 05:47:38;;;;;;;;;;;17.80;52.70;;;;;;5011734;28;19932;-73
2023/03/14 05:50:04;;;;;;;;;;;17.80;52.70;;;;;;5010472;28;20019;-73
2023/03/14 05:52:29;;;;;;;;;;;17.80;52.70;;;;;;5010347;28;19921;-73
2023/03/14 05:54:55;;;;;;;;;;;17.80;52.80;;;;;;5011038;28;19933;-73
2023/03/14 05:57:20;;;;;;;;;;;17.70;52.90;;;;;;5024354;28;19910;-73
2023/03/14 05:59:46;;;;;;;;;;;17.70;53.00;;;;;;5010071;28;19974;-73
2023/03/14 06:02:11;;;;;;;;;;;17.70;52.90;;;;;;5029352;28;19940;-73
2023/03/14 06:04:37;;;;;;;;;;;17.70;53.00;;;;;;5011240;28;19917;-73
2023/03/14 06:07:02;;;;;;;;;;;17.70;53.00;;;;;;4993661;28;19917;-73
2023/03/14 06:09:27;;;;;;;;;;;17.70;52.90;;;;;;5009258;28;19921;-73
2023/03/14 06:11:53;;;;;;;;;;;17.70;52.80;;;;;;5010008;28;19913;-73
2023/03/14 06:14:18;;;;;;;;;;;17.70;52.90;;;;;;5008915;28;19957;-73
2023/03/14 06:16:44;;;;;;;;;;;17.70;52.90;;;;;;5009959;28;20355;-73
2023/03/14 06:19:10;;;;;;;;;;;17.70;53.00;;;;;;5010161;28;19920;-74
2023/03/14 06:21:35;;;;;;;;;;;17.70;52.90;;;;;;5026478;28;20298;-74
2023/03/14 06:24:01;;;;;;;;;;;17.70;53.00;;;;;;5030160;28;19916;-73
2023/03/14 06:26:26;;;;;;;;;;;17.70;53.10;;;;;;5001676;28;20426;-73
2023/03/14 06:28:53;;;;;;;;;;;17.70;53.10;;;;;;5017247;28;19932;-75
2023/03/14 06:31:18;;;;;;;;;;;17.70;53.10;;;;;;5010143;28;19984;-73
2023/03/14 06:33:44;;;;;;;;;;;17.70;53.10;;;;;;5027558;28;19949;-73
2023/03/14 06:36:09;;;;;;;;;;;17.70;53.10;;;;;;5011039;28;19924;-73
2023/03/14 06:38:35;;;;;;;;;;;17.60;53.00;;;;;;5010386;28;19910;-75
2023/03/14 06:41:04;;;;;;;;;;;17.70;53.10;;;;;;5010509;28;19937;-77
2023/03/14 06:43:30;;;;;;;;;;;17.70;53.10;;;;;;5002234;28;19918;-77
2023/03/14 06:45:55;;;;;;;;;;;17.70;53.00;;;;;;5009997;28;19988;-75
2023/03/14 06:48:21;;;;;;;;;;;17.70;53.00;;;;;;4993874;28;20065;-75
2023/03/14 06:50:47;;;;;;;;;;;17.70;53.10;;;;;;5010220;28;19921;-75
2023/03/14 06:53:18;;;;;;;;;;;17.80;53.20;;;;;;4993708;28;19920;-75
2023/03/14 06:55:45;;;;;;;;;;;17.70;53.10;;;;;;5015831;28;20008;-75
2023/03/14 06:58:11;;;;;;;;;;;17.80;53.10;;;;;;5010469;28;20366;-74
2023/03/14 07:00:36;;;;;;;;;;;17.80;53.10;;;;;;5009995;28;19916;-74
2023/03/14 07:03:01;;;;;;;;;;;17.80;53.00;;;;;;5019822;27;19936;-76
2023/03/14 07:05:27;;;;;;;;;;;17.80;53.00;;;;;;5004093;28;19913;-75
2023/03/14 07:07:52;;;;;;;;;;;17.80;53.60;;;;;;5018598;28;19914;-76
2023/03/14 07:10:18;;;;;;;;;;;17.80;52.90;;;;;;5009325;28;19929;-76
2023/03/14 07:12:43;;;;;;;;;;;17.80;53.00;;;;;;4995656;28;19920;-76
2023/03/14 07:15:09;;;;;;;;;;;17.70;53.00;;;;;;5013623;28;19917;-75
2023/03/14 07:17:35;;;;;;;;;;;17.80;53.10;;;;;;5016494;28;20000;-76
2023/03/14 07:20:00;;;;;;;;;;;17.70;53.00;;;;;;5011881;28;19913;-75
2023/03/14 07:22:26;;;;;;;;;;;17.70;53.10;;;;;;5000956;28;19943;-75
2023/03/14 07:24:51;;;;;;;;;;;17.70;53.00;;;;;;5010783;28;20378;-73
2023/03/14 07:27:17;;;;;;;;;;;17.70;53.00;;;;;;5020432;28;20263;-73
2023/03/14 07:29:42;;;;;;;;;;;17.70;53.00;;;;;;5026486;28;19959;-73
2023/03/14 07:32:08;;;;;;;;;;;17.70;53.00;;;;;;5018780;28;20308;-73
2023/03/14 07:34:33;;;;;;;;;;;17.70;53.00;;;;;;5014987;28;19962;-74
2023/03/14 07:36:59;;;;;;;;;;;17.70;53.10;;;;;;5012584;28;19917;-73
2023/03/14 07:39:24;;;;;;;;;;;17.60;53.00;;;;;;5089877;27;19914;-74
2023/03/14 07:41:50;;;;;;;;;;;17.60;53.00;;;;;;5017290;28;20339;-74
2023/03/14 07:44:15;;;;;;;;;;;17.70;53.10;;;;;;5006708;28;20010;-74
2023/03/14 07:46:41;;;;;;;;;;;17.70;53.00;;;;;;5003300;28;20322;-74
2023/03/14 07:49:06;;;;;;;;;;;17.70;53.00;;;;;;5010811;28;20412;-75
2023/03/14 07:51:32;;;;;;;;;;;17.70;53.00;;;;;;5009308;28;19921;-76
2023/03/14 07:53:57;;;;;;;;;;;17.70;53.00;;;;;;5019282;28;20031;-75
2023/03/14 07:56:23;;;;;;;;;;;17.80;53.10;;;;;;5023623;28;19913;-75
2023/03/14 07:58:48;;;;;;;;;;;17.70;53.10;;;;;;5003272;28;19959;-75
2023/03/14 08:01:14;;;;;;;;;;;17.70;53.10;;;;;;5007202;28;19917;-75
2023/03/14 08:03:39;;;;;;;;;;;17.70;53.10;;;;;;5009153;28;19972;-75
2023/03/14 08:06:05;;;;;;;;;;;17.70;53.10;;;;;;5015530;28;19913;-75
2023/03/14 08:08:30;;;;;;;;;;;17.70;53.10;;;;;;5026521;28;19949;-76
2023/03/14 08:10:55;;;;;;;;;;;17.70;53.10;;;;;;5015671;28;20310;-75
2023/03/14 08:13:23;;;;;;;;;;;17.60;53.00;;;;;;5021886;28;20026;-75
2023/03/14 08:15:49;;;;;;;;;;;17.60;53.00;;;;;;5030605;28;19913;-75
2023/03/14 08:18:14;;;;;;;;;;;17.60;53.00;;;;;;5008993;28;19963;-75
2023/03/14 08:20:43;;;;;;;;;;;17.60;53.00;;;;;;5013685;28;19914;-77
2023/03/14 08:23:08;;;;;;;;;;;17.60;53.00;;;;;;5023625;28;19963;-74
2023/03/14 08:25:34;;;;;;;;;;;17.60;53.00;;;;;;4996099;28;20348;-74
2023/03/14 08:27:59;;;;;;;;;;;17.60;53.00;;;;;;5024767;28;19928;-75
2023/03/14 08:30:25;;;;;;;;;;;17.70;52.90;;;;;;5015134;28;19925;-74
2023/03/14 08:32:50;;;;;;;;;;;17.70;53.00;;;;;;5014682;28;19913;-75
2023/03/14 08:35:15;;;;;;;;;;;17.60;53.00;;;;;;5029268;28;19916;-75
2023/03/14 08:37:41;;;;;;;;;;;17.60;53.00;;;;;;4998311;28;19952;-75
2023/03/14 08:40:08;;;;;;;;;;;17.70;53.00;;;;;;5010129;28;20000;-74
2023/03/14 08:42:33;;;;;;;;;;;17.70;53.00;;;;;;4998058;28;19918;-74
2023/03/14 08:44:59;;;;;;;;;;;17.70;53.00;;;;;;4998783;28;19917;-75
2023/03/14 08:47:24;;;;;;;;;;;17.70;53.00;;;;;;5014595;28;20098;-75
2023/03/14 08:49:50;;;;;;;;;;;17.70;53.00;;;;;;5001735;28;19924;-74
2023/03/14 08:52:16;;;;;;;;;;;17.70;52.90;;;;;;5014722;28;19918;-75
2023/03/14 08:54:43;;;;;;;;;;;17.70;52.80;;;;;;5003335;28;20488;-74
2023/03/14 08:57:08;;;;;;;;;;;17.70;52.70;;;;;;4999910;28;19928;-74
2023/03/14 08:59:33;;;;;;;;;;;17.70;52.80;;;;;;5009690;28;19921;-74
2023/03/14 09:01:59;;;;;;;;;;;17.70;53.00;;;;;;5024578;28;19923;-74
2023/03/14 09:04:24;;;;;;;;;;;17.70;52.90;;;;;;5013782;28;19978;-74
2023/03/14 09:06:50;;;;;;;;;;;17.70;52.90;;;;;;5009395;28;19990;-75
2023/03/14 09:09:15;;;;;;;;;;;17.70;53.00;;;;;;5019343;28;19928;-75
2023/03/14 09:11:41;;;;;;;;;;;17.70;53.10;;;;;;5032198;28;20017;-75
2023/03/14 09:14:06;;;;;;;;;;;17.70;53.10;;;;;;5012274;28;20435;-75
2023/03/14 09:16:32;;;;;;;;;;;17.70;53.00;;;;;;5011439;28;19948;-75
2023/03/14 09:18:59;;;;;;;;;;;17.80;53.20;;;;;;5026622;28;20475;-73
2023/03/14 09:21:28;;;;;;;;;;;17.70;53.10;;;;;;5028974;28;20413;-75
2023/03/14 09:23:53;;;;;;;;;;;17.70;53.10;;;;;;5013672;28;19924;-74
2023/03/14 09:26:19;;;;;;;;;;;17.70;53.10;;;;;;5015065;28;19918;-76
2023/03/14 09:28:44;;;;;;;;;;;17.70;53.10;;;;;;5023235;28;19939;-75
2023/03/14 09:31:10;;;;;;;;;;;17.70;53.10;;;;;;5006891;28;19917;-75
2023/03/14 09:33:36;;;;;;;;;;;17.70;53.10;;;;;;5018348;27;19958;-75
2023/03/14 09:36:01;;;;;;;;;;;17.70;53.10;;;;;;5012997;28;19955;-75
2023/03/14 09:38:27;;;;;;;;;;;17.70;53.10;;;;;;5021128;28;19920;-76
2023/03/14 09:40:53;;;;;;;;;;;17.80;53.20;;;;;;5016632;28;19916;-75
2023/03/14 09:43:18;;;;;;;;;;;17.80;53.20;;;;;;5013878;28;20413;-75
2023/03/14 09:45:45;;;;;;;;;;;17.70;53.10;;;;;;5025351;28;19924;-75
2023/03/14 09:48:20;;;;;;;;;;;17.70;53.10;;;;;;5012483;28;19929;-75
2023/03/14 09:50:50;;;;;;;;;;;17.70;53.10;;;;;;5015399;28;19917;-75
2023/03/14 09:53:16;;;;;;;;;;;17.70;53.10;;;;;;5023516;28;20385;-75
2023/03/14 09:55:42;;;;;;;;;;;17.70;53.10;;;;;;5014919;27;19936;-74
2023/03/14 09:58:18;;;;;;;;;;;17.70;53.10;;;;;;5021736;28;19921;-74
2023/03/14 10:00:44;;;;;;;;;;;17.70;53.10;;;;;;5030243;28;19917;-74
2023/03/14 10:03:13;;;;;;;;;;;17.80;53.20;;;;;;5014296;28;19917;-74
2023/03/14 10:05:38;;;;;;;;;;;17.80;53.20;;;;;;5020503;28;19917;-74
2023/03/14 10:08:04;;;;;;;;;;;17.80;53.20;;;;;;5009728;28;19913;-74
2023/03/14 10:10:29;;;;;;;;;;;17.80;53.20;;;;;;5009959;28;19926;-74
2023/03/14 10:12:56;;;;;;;;;;;17.80;53.20;;;;;;5014992;28;19922;-75
2023/03/14 10:15:26;;;;;;;;;;;17.80;53.20;;;;;;5009567;28;20293;-74
2023/03/14 10:17:52;;;;;;;;;;;17.80;53.20;;;;;;5009999;28;20007;-75
2023/03/14 10:20:32;;;;;;;;;;;18.20;52.50;;;;;;5012214;28;20548;-75
2023/03/14 10:22:59;;;;;;;;;;;19.10;50.80;;;;;;5020505;28;19917;-73
2023/03/14 10:25:28;;;;;;;;;;;20.20;48.30;;;;;;5016435;28;19945;-73
2023/03/14 10:27:53;;;;;;;;;;;21.10;46.40;;;;;;5002875;28;20293;-73
2023/03/14 10:30:43;;;;;;;;;;;21.70;45.30;;;;;;5017263;28;19921;-74
2023/03/14 10:33:10;;;;;;;;;;;22.10;44.50;;;;;;5024679;28;20354;-74
2023/03/14 10:35:35;;;;;;;;;;;22.50;44.10;;;;;;5016989;28;19917;-74
2023/03/14 10:38:01;;;;;;;;;;;22.60;43.80;;;;;;5026073;28;19962;-74
2023/03/14 10:40:28;;;;;;;;;;;22.70;43.50;;;;;;5018204;28;19913;-74
2023/03/14 10:42:55;;;;;;;;;;;22.80;43.30;;;;;;5000316;28;20492;-74
2023/03/14 10:45:20;;;;;;;;;;;22.90;43.20;;;;;;5009467;28;20415;-74
2023/03/14 10:47:47;;;;;;;;;;;23.00;43.20;;;;;;5018930;28;19913;-74
2023/03/14 10:50:27;;;;;;;;;;;23.10;43.10;;;;;;5021818;28;19917;-74
2023/03/14 10:52:53;;;;;;;;;;;23.00;43.00;;;;;;5018335;28;20008;-73
2023/03/14 10:55:18;;;;;;;;;;;23.10;42.90;;;;;;5013396;28;20358;-73
2023/03/14 10:57:44;;;;;;;;;;;23.20;42.90;;;;;;5018516;28;19924;-73
2023/03/14 11:00:19;;;;;;;;;;;23.20;42.90;;;;;;5021686;28;19921;-74
2023/03/14 11:03:05;;;;;;;;;;;23.20;42.80;;;;;;5013501;27;19944;-73
2023/03/14 11:05:32;;;;;;;;;;;23.20;42.50;;;;;;5020408;28;19909;-73
2023/03/14 11:08:01;;;;;;;;;;;23.20;42.60;;;;;;5029256;28;20286;-74
2023/03/14 11:10:32;;;;;;;;;;;23.20;42.60;;;;;;5020168;28;19921;-74
2023/03/14 11:13:02;;;;;;;;;;;23.30;42.60;;;;;;5022205;28;19913;-74
2023/03/14 11:15:30;;;;;;;;;;;23.40;42.70;;;;;;5029129;28;20374;-74
2023/03/14 11:18:12;;;;;;;;;;;23.30;42.60;;;;;;5022364;28;19913;-74
2023/03/14 11:20:49;;;;;;;;;;;23.40;42.70;;;;;;5009244;28;19956;-74
2023/03/14 11:23:24;;;;;;;;;;;23.40;42.60;;;;;;5016287;28;19921;-74
2023/03/14 11:25:54;;;;;;;;;;;23.40;42.40;;;;;;5019153;28;20039;-74
2023/03/14 11:28:26;;;;;;;;;;;23.40;42.40;;;;;;5023642;28;19913;-74
2023/03/14 11:30:55;;;;;;;;;;;23.40;42.40;;;;;;5015469;28;19922;-74
2023/03/14 11:33:25;;;;;;;;;;;23.50;42.40;;;;;;5020306;28;19920;-73
2023/03/14 11:35:58;;;;;;;;;;;23.40;42.30;;;;;;5019263;28;19969;-73
2023/03/14 11:38:34;;;;;;;;;;;23.50;42.30;;;;;;5023921;28;19992;-74
2023/03/14 11:41:00;;;;;;;;;;;23.50;42.30;;;;;;5028050;28;20012;-74
2023/03/14 11:43:30;;;;;;;;;;;23.40;42.20;;;;;;4997145;28;20016;-74
2023/03/14 11:46:03;;;;;;;;;;;23.50;42.20;;;;;;5020854;28;19910;-74
2023/03/14 11:48:39;;;;;;;;;;;23.50;42.10;;;;;;5020754;28;20016;-74
2023/03/14 11:51:07;;;;;;;;;;;23.50;42.10;;;;;;5019287;28;19924;-73
2023/03/14 11:53:39;;;;;;;;;;;23.50;42.10;;;;;;5004857;28;19996;-73
2023/03/14 11:56:08;;;;;;;;;;;23.50;42.10;;;;;;5019394;28;20051;-74
2023/03/14 11:58:33;;;;;;;;;;;23.50;42.10;;;;;;5011076;28;19920;-74
2023/03/14 12:01:01;;;;;;;;;;;23.50;42.20;;;;;;5011983;28;19918;-74
2023/03/14 12:03:41;;;;;;;;;;;23.50;42.10;;;;;;5006065;28;19921;-73
2023/03/14 12:06:13;;;;;;;;;;;23.50;42.30;;;;;;5026131;28;20289;-73
2023/03/14 12:08:45;;;;;;;;;;;23.50;42.30;;;;;;5016327;28;19918;-73
2023/03/14 12:11:13;;;;;;;;;;;23.40;42.30;;;;;;5010826;28;19917;-74
2023/03/14 12:13:38;;;;;;;;;;;23.40;42.30;;;;;;4998765;28;19924;-74
2023/03/14 12:16:05;;;;;;;;;;;23.40;42.50;;;;;;5001811;28;20382;-74
2023/03/14 12:18:36;;;;;;;;;;;23.40;42.50;;;;;;5005650;28;19913;-74
2023/03/14 12:21:02;;;;;;;;;;;23.30;42.40;;;;;;5026644;28;19913;-74
2023/03/14 12:23:28;;;;;;;;;;;23.30;42.40;;;;;;5002830;28;19913;-73
2023/03/14 12:26:26;;;;;;;;;;;23.40;42.40;;;;;;5011617;28;19917;-74
2023/03/14 12:28:57;;;;;;;;;;;23.30;42.40;;;;;;5030850;28;19913;-73
2023/03/14 12:31:28;;;;;;;;;;;23.40;42.40;;;;;;5028077;28;19917;-74
2023/03/14 12:34:09;;;;;;;;;;;23.40;42.30;;;;;;5030267;28;20286;-74
2023/03/14 12:36:50;;;;;;;;;;;23.40;42.30;;;;;;5029186;28;20297;-73
2023/03/14 12:39:34;;;;;;;;;;;23.40;42.30;;;;;;5015778;28;19943;-74
2023/03/14 12:42:03;;;;;;;;;;;23.40;42.20;;;;;;5015979;28;19961;-74
2023/03/14 12:44:28;;;;;;;;;;;23.40;42.00;;;;;;5026822;28;19924;-74
2023/03/14 12:46:54;;;;;;;;;;;23.50;42.00;;;;;;5028883;28;19929;-74
2023/03/14 12:49:20;;;;;;;;;;;23.50;41.90;;;;;;5031021;28;19925;-74
2023/03/14 12:51:45;;;;;;;;;;;23.50;41.90;;;;;;5026809;28;19925;-73
2023/03/14 12:54:29;;;;;;;;;;;23.50;41.90;;;;;;5011520;28;19914;-74
2023/03/14 12:57:07;;;;;;;;;;;23.60;41.90;;;;;;5030040;28;20042;-74
2023/03/14 12:59:33;;;;;;;;;;;23.60;41.90;;;;;;5022033;28;20004;-73
2023/03/14 13:02:00;;;;;;;;;;;23.70;41.90;;;;;;5018225;27;19914;-73
2023/03/14 13:04:33;;;;;;;;;;;23.60;41.80;;;;;;5026835;28;20293;-74
2023/03/14 13:06:59;;;;;;;;;;;23.70;41.90;;;;;;4999632;28;20007;-74
2023/03/14 13:09:29;;;;;;;;;;;23.60;41.80;;;;;;5030861;28;19960;-74
2023/03/14 13:12:00;;;;;;;;;;;23.70;41.80;;;;;;5027007;28;19936;-74
2023/03/14 13:14:27;;;;;;;;;;;23.70;41.80;;;;;;5003394;28;19913;-74
2023/03/14 13:16:52;;;;;;;;;;;23.60;41.80;;;;;;5003054;28;19918;-74
2023/03/14 13:19:25;;;;;;;;;;;23.70;41.80;;;;;;5021686;28;19917;-73
2023/03/14 13:21:50;;;;;;;;;;;23.70;41.70;;;;;;5017512;28;20061;-73
2023/03/14 13:24:22;;;;;;;;;;;23.70;41.60;;;;;;5023398;28;20401;-73
2023/03/14 13:26:48;;;;;;;;;;;23.70;41.60;;;;;;5025171;28;20002;-73
2023/03/14 13:29:13;;;;;;;;;;;23.70;41.50;;;;;;5027885;27;19917;-73
2023/03/14 13:31:39;;;;;;;;;;;23.70;41.60;;;;;;5022696;28;19924;-74
2023/03/14 13:34:06;;;;;;;;;;;23.70;41.60;;;;;;5000739;28;19917;-73
2023/03/14 13:36:31;;;;;;;;;;;23.70;41.70;;;;;;5017380;28;20008;-74
2023/03/14 13:38:58;;;;;;;;;;;23.70;41.80;;;;;;5026607;28;20004;-74
2023/03/14 13:41:23;;;;;;;;;;;23.70;41.80;;;;;;5009648;28;19917;-74
2023/03/14 13:43:49;;;;;;;;;;;23.60;41.60;;;;;;5023820;28;19919;-73
2023/03/14 13:46:21;;;;;;;;;;;23.70;41.70;;;;;;5007781;28;19917;-74
2023/03/14 13:48:47;;;;;;;;;;;23.70;41.70;;;;;;5009076;28;19917;-74
2023/03/14 13:51:13;;;;;;;;;;;23.70;41.60;;;;;;5011777;28;19917;-73
2023/03/14 13:53:43;;;;;;;;;;;23.60;41.50;;;;;;5020365;28;20301;-73
2023/03/14 13:56:08;;;;;;;;;;;23.60;41.40;;;;;;5017046;28;20395;-73
2023/03/14 13:58:35;;;;;;;;;;;23.70;41.40;;;;;;5009138;28;20044;-73
2023/03/14 14:01:03;;;;;;;;;;;23.70;41.40;;;;;;5029571;28;19917;-73
2023/03/14 14:03:30;;;;;;;;;;;23.70;41.30;;;;;;5017124;28;19917;-73
2023/03/14 14:05:57;;;;;;;;;;;23.70;41.40;;;;;;5022179;28;19921;-73
2023/03/14 14:08:22;;;;;;;;;;;23.60;41.40;;;;;;5010287;28;20298;-73
2023/03/14 14:10:49;;;;;;;;;;;23.60;41.40;;;;;;5029368;28;19931;-73
2023/03/14 14:13:15;;;;;;;;;;;23.70;41.40;;;;;;5020123;28;19928;-73
2023/03/14 14:15:41;;;;;;;;;;;23.70;41.30;;;;;;5009917;28;19989;-73